createdAt,value
2019-03-21T00:03:25.056Z,6.40
2019-03-21T00:06:13.866Z,6.23
2019-03-21T00:09:02.297Z,6.20
2019-03-21T00:12:09.869Z,5.87
2019-03-21T00:15:17.413Z,6.17
2019-03-21T00:18:07.218Z,6.97
2019-03-21T00:20:55.449Z,6.47
2019-03-21T00:23:43.720Z,6.60
2019-03-21T00:26:32.193Z,6.37
2019-03-21T00:29:20.435Z,6.00
2019-03-21T00:32:08.907Z,6.27
2019-03-21T00:34:50.160Z,6.33
2019-03-21T00:37:31.300Z,6.20
2019-03-21T00:40:12.164Z,6.30
2019-03-21T00:42:53.256Z,6.50
2019-03-21T00:45:33.892Z,6.97
2019-03-21T00:48:14.719Z,7.00
2019-03-21T00:50:55.764Z,7.03
2019-03-21T00:53:36.827Z,6.80
2019-03-21T00:56:17.509Z,6.57
2019-03-21T00:58:58.620Z,6.70
2019-03-21T01:01:40.081Z,6.80
2019-03-21T01:04:20.813Z,6.50
2019-03-21T01:06:50.266Z,7.10
2019-03-21T01:09:38.959Z,6.17
2019-03-21T01:12:09.860Z,6.33
2019-03-21T01:14:58.413Z,7.07
2019-03-21T01:21:01.765Z,6.13
2019-03-21T01:23:49.916Z,6.60
2019-03-21T01:26:38.435Z,6.50
2019-03-21T01:29:26.614Z,6.67
2019-03-21T01:32:15.032Z,6.70
2019-03-21T01:34:56.068Z,6.07
2019-03-21T01:37:38.483Z,6.10
2019-03-21T01:43:08.195Z,6.57
2019-03-21T01:45:48.952Z,6.70
2019-03-21T01:48:29.898Z,6.43
2019-03-21T01:51:11.454Z,6.43
2019-03-21T01:53:52.340Z,6.13
2019-03-21T01:56:33.095Z,6.53
2019-03-21T01:59:13.663Z,6.30
2019-03-21T02:01:54.490Z,6.40
2019-03-21T02:04:34.975Z,6.80
2019-03-21T02:07:15.353Z,6.50
2019-03-21T02:09:56.545Z,6.80
2019-03-21T02:12:37.559Z,6.10
2019-03-21T02:15:18.267Z,6.57
2019-03-21T02:17:59.610Z,6.60
2019-03-21T02:20:40.450Z,6.80
2019-03-21T02:23:20.839Z,6.20
2019-03-21T02:26:01.761Z,6.93
2019-03-21T02:28:42.615Z,6.97
2019-03-21T02:31:23.467Z,6.47
2019-03-21T02:34:04.815Z,6.50
2019-03-21T02:36:45.828Z,6.80
2019-03-21T02:39:26.196Z,6.40
2019-03-21T02:42:06.870Z,7.10
2019-03-21T02:44:47.722Z,6.47
2019-03-21T02:47:28.437Z,6.27
2019-03-21T02:50:09.213Z,6.60
2019-03-21T02:53:11.946Z,6.77
2019-03-21T03:02:13.943Z,7.20
2019-03-21T03:05:02.156Z,6.53
2019-03-21T03:07:50.400Z,6.70
2019-03-21T03:10:40.163Z,6.60
2019-03-21T03:13:28.388Z,6.17
2019-03-21T03:16:16.598Z,6.33
2019-03-21T03:21:58.076Z,6.90
2019-03-21T03:24:46.289Z,6.43
2019-03-21T03:27:34.542Z,5.80
2019-03-21T03:30:22.994Z,6.33
2019-03-21T03:33:11.200Z,6.27
2019-03-21T03:35:52.455Z,6.70
2019-03-21T03:38:33.265Z,6.60
2019-03-21T03:41:14.453Z,7.40
2019-03-21T03:46:50.595Z,6.33
2019-03-21T03:49:31.017Z,6.30
2019-03-21T03:52:12.457Z,6.13
2019-03-21T03:54:53.326Z,6.80
2019-03-21T03:57:34.327Z,6.90
2019-03-21T04:00:15.565Z,6.50
2019-03-21T04:02:56.351Z,7.00
2019-03-21T04:05:36.898Z,6.80
2019-03-21T04:08:17.408Z,7.30
2019-03-21T04:10:58.504Z,6.33
2019-03-21T04:13:38.889Z,6.10
2019-03-21T04:16:20.133Z,6.70
2019-03-21T04:19:01.309Z,6.63
2019-03-21T04:21:42.362Z,6.80
2019-03-21T04:24:23.169Z,6.47
2019-03-21T04:27:02.389Z,6.43
2019-03-21T04:32:43.634Z,7.00
2019-03-21T04:35:13.209Z,6.60
2019-03-21T04:38:01.551Z,6.30
2019-03-21T04:40:50.058Z,6.87
2019-03-21T04:43:38.806Z,5.80
2019-03-21T04:46:26.981Z,6.17
2019-03-21T04:49:15.497Z,5.60
2019-03-21T04:52:03.692Z,6.00
2019-03-21T06:11:15.329Z,5.70
2019-03-21T06:13:56.085Z,4.97
2019-03-21T06:16:37.936Z,5.07
2019-03-21T06:19:18.449Z,4.87
2019-03-21T06:21:59.005Z,5.20
2019-03-21T06:24:40.267Z,5.43
2019-03-21T06:27:21.317Z,5.10
2019-03-21T06:30:02.353Z,4.80
2019-03-21T06:32:43.517Z,4.83
2019-03-21T06:35:24.713Z,5.40
2019-03-21T06:38:06.296Z,5.50
2019-03-21T06:40:47.397Z,5.33
2019-03-21T06:43:28.251Z,4.87
2019-03-21T06:46:09.068Z,5.00
2019-03-21T06:48:49.757Z,5.00
2019-03-21T06:51:31.558Z,5.80
2019-03-21T06:57:28.701Z,4.87
2019-03-21T07:00:09.445Z,5.17
2019-03-21T07:02:50.516Z,5.33
2019-03-21T07:05:31.181Z,4.40
2019-03-21T07:08:12.140Z,5.70
2019-03-21T07:10:53.435Z,5.10
2019-03-21T07:13:34.152Z,5.70
2019-03-21T07:16:14.968Z,4.77
2019-03-21T07:18:56.018Z,5.10
2019-03-21T07:21:36.824Z,5.37
2019-03-21T07:24:17.829Z,5.47
2019-03-21T07:29:45.592Z,5.93
2019-03-21T07:32:33.346Z,5.13
2019-03-21T07:35:08.931Z,5.10
2019-03-21T07:37:49.970Z,4.50
2019-03-21T07:40:30.791Z,5.97
2019-03-21T07:43:11.678Z,5.30
2019-03-21T07:45:53.664Z,5.40
2019-03-21T07:57:35.529Z,5.20
2019-03-21T08:00:16.474Z,5.43
2019-03-21T08:05:50.780Z,5.00
2019-03-21T08:08:32.225Z,5.47
2019-03-21T08:11:12.960Z,5.17
2019-03-21T08:13:54.169Z,5.43
2019-03-21T08:16:39.256Z,5.63
2019-03-21T08:22:13.477Z,5.03
2019-03-21T08:24:54.233Z,4.90
2019-03-21T08:27:35.165Z,5.10
2019-03-21T08:30:16.143Z,6.03
2019-03-21T08:32:56.661Z,5.33
2019-03-21T08:35:37.567Z,5.30
2019-03-21T08:38:18.282Z,4.80
2019-03-21T08:40:59.117Z,5.00
2019-03-21T08:43:40.200Z,5.00
2019-03-21T08:49:06.727Z,5.70
2019-03-21T08:51:47.903Z,4.80
2019-03-21T08:54:28.680Z,5.40
2019-03-21T08:57:09.610Z,5.60
2019-03-21T08:59:50.770Z,4.50
2019-03-21T09:02:31.420Z,5.23
2019-03-21T09:05:12.105Z,5.57
2019-03-21T09:07:52.902Z,5.27
2019-03-21T09:10:34.474Z,5.57
2019-03-21T09:13:15.828Z,4.87
2019-03-21T09:15:56.276Z,5.13
2019-03-21T09:18:37.000Z,5.10
2019-03-21T09:21:19.909Z,5.27
2019-03-21T09:24:00.746Z,5.57
2019-03-21T09:26:41.389Z,5.43
2019-03-21T09:29:21.738Z,5.77
2019-03-21T09:32:02.594Z,5.00
2019-03-21T09:34:43.390Z,5.93
2019-03-21T09:37:24.548Z,6.20
2019-03-21T09:40:05.260Z,5.77
2019-03-21T09:42:46.477Z,5.70
2019-03-21T09:45:27.759Z,5.50
2019-03-21T09:48:08.768Z,5.70
2019-03-21T09:50:49.627Z,5.50
2019-03-21T09:53:30.439Z,5.50
2019-03-21T09:56:11.285Z,5.63
2019-03-21T09:58:52.205Z,5.30
2019-03-21T10:01:33.392Z,5.43
2019-03-21T10:04:13.957Z,6.03
2019-03-21T10:06:54.541Z,5.50
2019-03-21T10:09:35.379Z,5.80
2019-03-21T10:12:16.031Z,5.87
2019-03-21T10:14:56.809Z,5.17
2019-03-21T10:17:37.672Z,5.40
2019-03-21T10:20:18.548Z,6.00
2019-03-21T10:22:59.706Z,6.27
2019-03-21T10:25:40.747Z,5.37
2019-03-21T10:28:21.330Z,5.50
2019-03-21T10:31:02.368Z,5.37
2019-03-21T10:33:43.745Z,6.43
2019-03-21T10:36:25.030Z,5.70
2019-03-21T10:39:05.828Z,6.07
2019-03-21T10:41:46.737Z,5.80
2019-03-21T10:44:27.756Z,6.07
2019-03-21T10:47:08.271Z,6.83
2019-03-21T10:49:48.932Z,6.30
2019-03-21T10:52:29.920Z,6.20
2019-03-21T10:55:10.420Z,6.13
2019-03-21T10:57:51.262Z,6.13
2019-03-21T11:00:32.179Z,6.00
2019-03-21T11:03:12.942Z,6.13
2019-03-21T11:05:53.532Z,6.60
2019-03-21T11:08:57.654Z,6.70
2019-03-21T11:11:44.850Z,6.83
2019-03-21T11:17:34.458Z,6.70
2019-03-21T11:20:41.659Z,6.20
2019-03-21T11:23:30.368Z,7.30
2019-03-21T11:29:26.219Z,6.50
2019-03-21T11:32:14.399Z,7.30
2019-03-21T11:35:02.669Z,6.37
2019-03-21T11:37:43.071Z,6.73
2019-03-21T11:40:23.788Z,6.93
2019-03-21T11:43:05.181Z,6.90
2019-03-21T11:45:47.821Z,6.80
2019-03-21T11:48:28.334Z,6.80
2019-03-21T11:51:09.354Z,7.60
2019-03-21T11:53:50.281Z,6.50
2019-03-21T11:56:31.123Z,7.67
2019-03-21T11:59:12.232Z,7.57
2019-03-21T12:01:53.292Z,7.43
2019-03-21T12:04:34.115Z,7.33
2019-03-21T12:07:15.402Z,6.37
2019-03-21T12:09:56.133Z,6.37
2019-03-21T12:12:37.393Z,6.80
2019-03-21T12:15:18.676Z,5.80
2019-03-21T12:17:59.623Z,7.13
2019-03-21T12:20:40.025Z,7.63
2019-03-21T12:23:21.024Z,6.70
2019-03-21T12:26:02.051Z,7.50
2019-03-21T12:28:43.176Z,7.50
2019-03-21T12:31:23.831Z,7.73
2019-03-21T12:34:04.755Z,6.97
2019-03-21T12:36:45.148Z,6.83
2019-03-21T12:39:25.849Z,7.60
2019-03-21T12:42:06.984Z,7.00
2019-03-21T12:44:49.730Z,7.37
2019-03-21T12:47:31.716Z,6.97
2019-03-21T12:50:16.264Z,7.13
2019-03-21T12:52:58.445Z,7.00
2019-03-21T12:58:40.719Z,6.93
2019-03-21T13:01:21.471Z,7.10
2019-03-21T13:04:03.727Z,7.67
2019-03-21T13:06:44.640Z,7.50
2019-03-21T13:09:25.362Z,7.27
2019-03-21T13:12:06.585Z,7.30
2019-03-21T13:14:47.380Z,7.00
2019-03-21T13:17:16.500Z,7.67
2019-03-21T13:20:05.184Z,7.40
2019-03-21T13:22:53.822Z,7.23
2019-03-21T13:25:43.296Z,7.60
2019-03-21T13:28:31.524Z,7.47
2019-03-21T13:31:19.940Z,7.43
2019-03-21T13:34:08.141Z,7.73
2019-03-21T13:36:49.750Z,7.00
2019-03-21T13:39:30.556Z,7.40
2019-03-21T13:42:11.560Z,7.53
2019-03-21T13:44:52.444Z,7.30
2019-03-21T13:47:33.440Z,6.50
2019-03-21T13:50:14.096Z,7.50
2019-03-21T13:53:04.192Z,7.00
2019-03-21T13:55:37.876Z,7.50
2019-03-21T13:58:19.224Z,7.53
2019-03-21T14:01:00.520Z,7.20
2019-03-21T14:03:41.775Z,8.00
2019-03-21T14:06:23.176Z,7.57
2019-03-21T14:09:04.599Z,7.30
2019-03-21T14:11:45.797Z,7.67
2019-03-21T14:14:26.919Z,8.43
2019-03-21T14:17:30.817Z,7.40
2019-03-21T14:20:08.101Z,7.83
2019-03-21T14:23:16.869Z,7.47
2019-03-21T14:25:42.228Z,7.67
2019-03-21T14:29:16.505Z,7.40
2019-03-21T14:31:32.786Z,7.27
2019-03-21T14:34:42.195Z,8.00
2019-03-21T14:40:22.291Z,7.70
2019-03-21T14:42:52.186Z,8.23
2019-03-21T14:49:00.788Z,8.30
2019-03-21T14:52:31.501Z,7.97
2019-03-21T14:58:33.144Z,7.43
2019-03-21T15:00:58.939Z,8.30
2019-03-21T15:03:53.129Z,8.10
2019-03-21T15:06:22.868Z,8.30
2019-03-21T15:09:34.099Z,7.97
2019-03-21T15:12:04.705Z,8.63
2019-03-21T15:15:15.027Z,8.43
2019-03-21T15:21:44.206Z,7.83
2019-03-21T15:24:32.462Z,8.07
2019-03-21T15:27:20.920Z,8.27
2019-03-21T15:30:10.369Z,7.90
2019-03-21T15:33:00.450Z,8.40
2019-03-21T15:35:48.696Z,8.03
2019-03-21T15:38:29.517Z,7.70
2019-03-21T15:41:10.419Z,7.83
2019-03-21T15:43:51.184Z,8.40
2019-03-21T15:46:32.246Z,7.83
2019-03-21T15:49:13.452Z,7.73
2019-03-21T15:51:53.852Z,7.70
2019-03-21T15:54:36.107Z,7.67
2019-03-21T15:57:22.143Z,8.20
2019-03-21T16:00:00.975Z,7.77
2019-03-21T16:02:56.618Z,8.40
2019-03-21T16:08:44.302Z,7.20
2019-03-21T16:14:16.548Z,8.10
2019-03-21T16:17:04.828Z,8.00
2019-03-21T16:19:53.323Z,8.43
2019-03-21T16:22:41.216Z,7.90
2019-03-21T16:25:48.798Z,8.00
2019-03-21T16:28:37.369Z,7.50
2019-03-21T16:31:25.674Z,7.70
2019-03-21T16:34:28.493Z,7.70
2019-03-21T16:37:04.659Z,7.17
2019-03-21T16:39:53.032Z,7.73
2019-03-21T16:42:41.357Z,7.23
2019-03-21T16:45:29.665Z,7.43
2019-03-21T16:51:31.176Z,7.10
2019-03-21T16:54:00.646Z,6.97
2019-03-21T16:56:30.320Z,7.50
2019-03-21T16:58:59.644Z,7.00
2019-03-21T17:01:28.789Z,7.13
2019-03-21T17:03:57.957Z,7.37
2019-03-21T17:06:27.109Z,7.27
2019-03-21T17:08:56.536Z,7.13
2019-03-21T17:11:25.748Z,7.33
2019-03-21T17:13:54.938Z,7.13
2019-03-21T17:16:24.613Z,7.07
2019-03-21T17:18:53.788Z,7.17
2019-03-21T17:21:23.263Z,7.27
2019-03-21T17:23:52.386Z,6.83
2019-03-21T17:26:21.560Z,6.30
2019-03-21T17:28:50.714Z,6.37
2019-03-21T17:31:19.825Z,7.03
2019-03-21T17:33:49.005Z,6.33
2019-03-21T17:36:20.665Z,7.70
2019-03-21T17:38:49.340Z,7.47
2019-03-21T17:41:18.813Z,6.57
2019-03-21T17:43:47.960Z,6.90
2019-03-21T17:46:17.096Z,7.20
2019-03-21T17:48:46.278Z,7.13
2019-03-21T17:51:15.885Z,6.70
2019-03-21T17:53:45.364Z,6.87
2019-03-21T17:56:14.506Z,7.10
2019-03-21T17:58:43.641Z,6.57
2019-03-21T18:01:12.839Z,6.30
2019-03-21T18:03:41.969Z,6.77
2019-03-21T18:06:11.606Z,6.50
2019-03-21T18:08:43.616Z,6.93
2019-03-21T18:11:12.769Z,6.70
2019-03-21T18:13:42.446Z,6.63
2019-03-21T18:16:11.923Z,7.07
2019-03-21T18:18:41.161Z,6.77
2019-03-21T18:21:10.272Z,6.43
2019-03-21T18:23:40.130Z,6.60
2019-03-21T18:26:09.235Z,6.97
2019-03-21T18:28:38.853Z,6.57
2019-03-21T18:31:08.350Z,6.30
2019-03-21T18:33:37.588Z,6.43
2019-03-21T18:36:07.032Z,6.40
2019-03-21T18:38:36.444Z,7.40
2019-03-21T18:41:05.848Z,6.30
2019-03-21T18:43:35.037Z,6.40
2019-03-21T18:46:04.442Z,6.33
2019-03-21T18:48:33.557Z,6.77
2019-03-21T18:51:02.957Z,6.90
2019-03-21T18:53:32.053Z,6.63
2019-03-21T18:56:01.197Z,6.60
2019-03-21T18:58:30.355Z,6.20
2019-03-21T19:00:59.463Z,5.60
2019-03-21T19:03:28.608Z,6.53
2019-03-21T19:05:57.862Z,7.10
2019-03-21T19:08:27.392Z,6.80
2019-03-21T19:10:56.896Z,6.40
2019-03-21T19:13:26.091Z,6.07
2019-03-21T19:15:55.235Z,6.00
2019-03-21T19:18:24.355Z,6.47
2019-03-21T19:20:53.611Z,6.33
2019-03-21T19:23:22.731Z,6.27
2019-03-21T19:25:51.891Z,6.23
2019-03-21T19:28:21.155Z,6.20
2019-03-21T19:30:50.342Z,6.60
2019-03-21T19:33:19.576Z,6.70
2019-03-21T19:35:48.775Z,6.27
2019-03-21T19:38:18.184Z,6.00
2019-03-21T19:40:47.644Z,6.27
2019-03-21T19:43:16.833Z,6.60
2019-03-21T19:45:46.182Z,5.90
2019-03-21T19:48:15.319Z,6.23
2019-03-21T19:50:44.946Z,6.50
2019-03-21T19:53:14.107Z,6.57
2019-03-21T19:55:43.228Z,5.30
2019-03-21T19:58:12.615Z,6.23
2019-03-21T20:00:41.831Z,5.73
2019-03-21T20:03:11.496Z,6.10
2019-03-21T20:05:40.639Z,5.90
2019-03-21T20:08:09.896Z,5.90
2019-03-21T20:10:39.225Z,6.07
2019-03-21T20:13:08.378Z,6.40
2019-03-21T20:15:37.799Z,6.40
2019-03-21T20:18:06.972Z,6.20
2019-03-21T20:20:36.374Z,5.70
2019-03-21T20:23:05.565Z,6.00
2019-03-21T20:25:42.790Z,6.63
2019-03-21T20:28:05.861Z,5.90
2019-03-21T20:30:35.016Z,6.33
2019-03-21T20:33:04.168Z,6.10
2019-03-21T20:35:33.607Z,6.47
2019-03-21T20:38:03.037Z,6.30
2019-03-21T20:40:32.400Z,5.87
2019-03-21T20:43:02.164Z,6.30
2019-03-21T20:45:31.591Z,6.00
2019-03-21T20:48:01.095Z,5.60
2019-03-21T20:50:30.296Z,5.43
2019-03-21T20:52:59.891Z,5.93
2019-03-21T20:55:29.039Z,5.73
2019-03-21T20:57:58.477Z,6.17
2019-03-21T21:00:27.599Z,6.27
2019-03-21T21:02:56.709Z,6.33
2019-03-21T21:05:26.391Z,6.07
2019-03-21T21:07:55.767Z,6.33
2019-03-21T21:10:24.899Z,5.37
2019-03-21T21:12:54.406Z,6.13
2019-03-21T21:15:23.564Z,5.97
2019-03-21T21:17:52.773Z,5.90
2019-03-21T21:20:21.958Z,6.53
2019-03-21T21:22:51.474Z,5.70
2019-03-21T21:25:20.712Z,6.07
2019-03-21T21:27:50.391Z,6.10
2019-03-21T21:30:19.776Z,6.20
2019-03-21T21:32:48.944Z,5.90
2019-03-21T21:35:18.216Z,5.97
2019-03-21T21:37:47.605Z,6.60
2019-03-21T21:40:17.384Z,6.33
2019-03-21T21:42:46.638Z,6.57
2019-03-21T21:45:15.939Z,6.50
2019-03-21T21:47:45.132Z,6.10
2019-03-21T21:50:14.337Z,5.90
2019-03-21T21:52:44.045Z,6.07
2019-03-21T21:55:13.176Z,6.33
2019-03-21T21:57:42.440Z,6.20
2019-03-21T22:00:15.304Z,6.20
2019-03-21T22:02:44.477Z,6.77
2019-03-21T22:05:13.915Z,5.70
2019-03-21T22:07:43.134Z,6.70
2019-03-21T22:10:12.279Z,6.03
2019-03-21T22:12:41.437Z,6.77
2019-03-21T22:15:10.978Z,6.60
2019-03-21T22:17:40.266Z,5.87
2019-03-21T22:20:09.598Z,6.50
2019-03-21T22:22:39.149Z,6.03
2019-03-21T22:25:08.499Z,6.27
2019-03-21T22:27:37.667Z,6.20
2019-03-21T22:30:09.160Z,5.93
2019-03-21T22:32:38.364Z,6.17
2019-03-21T22:35:08.043Z,6.00
2019-03-21T22:37:37.310Z,6.17
2019-03-21T22:40:07.125Z,6.23
2019-03-21T22:42:36.841Z,6.27
2019-03-21T22:45:06.485Z,6.33
2019-03-21T22:47:35.843Z,6.40
2019-03-21T22:50:06.239Z,5.37
2019-03-21T22:52:35.624Z,6.10
2019-03-21T22:55:05.118Z,6.43
2019-03-21T22:57:34.264Z,6.10
2019-03-21T23:00:03.662Z,5.40
2019-03-21T23:02:33.006Z,6.30
2019-03-21T23:05:02.163Z,6.27
2019-03-21T23:07:31.623Z,6.80
2019-03-21T23:10:00.795Z,7.03
2019-03-21T23:12:30.265Z,5.83
2019-03-21T23:14:59.661Z,5.90
2019-03-21T23:17:28.799Z,5.83
2019-03-21T23:19:58.436Z,6.37
2019-03-21T23:22:27.905Z,5.67
2019-03-21T23:24:57.171Z,5.80
2019-03-21T23:27:26.340Z,5.93
2019-03-21T23:29:55.716Z,6.17
2019-03-21T23:32:24.886Z,5.87
2019-03-21T23:34:54.038Z,6.30
2019-03-21T23:37:23.515Z,6.30
2019-03-21T23:39:52.732Z,6.27
2019-03-21T23:42:22.111Z,5.97
2019-03-21T23:44:51.263Z,5.90
2019-03-21T23:47:20.483Z,5.90
2019-03-21T23:49:49.671Z,6.13
2019-03-21T23:52:18.797Z,5.77
2019-03-21T23:54:48.197Z,6.17
2019-03-21T23:57:17.441Z,5.77
2019-03-21T23:59:46.576Z,6.20
